Barkly Downs Airport


Codes: YBAW/BKP
Name: Barkly Downs Airport
City:
Country: Australia
Elevation: 810 ft.

Photos at Barkly Downs Airport


   Photos courtesy of SpottingLog. You can add your own sightings and photos by signing up for a free trial today.



No photos found.

Weather at Barkly Downs Airport


Time (UTC)DescriptionTempratureWindCloud coverageVisibilityPressureHumidity
16-Jun-2024 00:00Clear Sky19°C16 mph, SE0%10000m1021hPa39%
16-Jun-2024 03:00Clear Sky20°C16 mph, S0%10000m1020hPa34%
16-Jun-2024 06:00Clear Sky23°C16 mph, S0%10000m1018hPa26%
16-Jun-2024 09:00Clear Sky21°C11 mph, S0%10000m1018hPa29%
16-Jun-2024 12:00Clear Sky18°C11 mph, S0%10000m1020hPa35%
16-Jun-2024 15:00Clear Sky16°C11 mph, S0%10000m1020hPa42%
16-Jun-2024 18:00Clear Sky15°C11 mph, SE0%10000m1019hPa46%
16-Jun-2024 21:00Clear Sky14°C11 mph, SE0%10000m1020hPa47%
17-Jun-2024 00:00Clear Sky19°C16 mph, SE0%10000m1021hPa39%
17-Jun-2024 03:00Clear Sky23°C18 mph, SE0%10000m1018hPa27%
17-Jun-2024 06:00Clear Sky25°C18 mph, SE0%10000m1017hPa26%
17-Jun-2024 09:00Clear Sky21°C11 mph, SE0%10000m1018hPa33%
17-Jun-2024 12:00Clear Sky18°C11 mph, SE0%10000m1020hPa39%
17-Jun-2024 15:00Clear Sky16°C11 mph, SE0%10000m1020hPa43%
17-Jun-2024 18:00Clear Sky15°C11 mph, SE0%10000m1019hPa46%
17-Jun-2024 21:00Clear Sky13°C9 mph, SE0%10000m1020hPa47%
18-Jun-2024 00:00Clear Sky19°C16 mph, SE0%10000m1021hPa33%
18-Jun-2024 03:00Clear Sky24°C16 mph, SE0%10000m1019hPa25%
18-Jun-2024 06:00Clear Sky25°C13 mph, SE0%10000m1016hPa23%
18-Jun-2024 09:00Clear Sky21°C9 mph, SE0%10000m1016hPa28%
18-Jun-2024 12:00Clear Sky19°C11 mph, SE0%10000m1018hPa31%
18-Jun-2024 15:00Clear Sky17°C9 mph, SE4%10000m1018hPa30%
18-Jun-2024 18:00Clear Sky16°C9 mph, SE3%10000m1018hPa28%
18-Jun-2024 21:00Clear Sky15°C9 mph, SE5%10000m1018hPa27%
19-Jun-2024 00:00Clear Sky21°C11 mph, E4%10000m1019hPa19%
19-Jun-2024 03:00Clear Sky26°C9 mph, E1%10000m1017hPa16%
19-Jun-2024 06:00Clear Sky28°C7 mph, E2%10000m1014hPa17%
19-Jun-2024 09:00Clear Sky23°C7 mph, SE2%10000m1015hPa23%
19-Jun-2024 12:00Clear Sky21°C7 mph, E9%10000m1017hPa27%
19-Jun-2024 15:00Few Clouds19°C7 mph, SE17%10000m1017hPa26%
19-Jun-2024 18:00Clear Sky18°C7 mph, E9%10000m1017hPa27%
19-Jun-2024 21:00Clear Sky17°C9 mph, SE0%10000m1018hPa29%
20-Jun-2024 00:00Clear Sky22°C9 mph, SE0%10000m1019hPa22%
20-Jun-2024 03:00Clear Sky26°C13 mph, SE0%10000m1018hPa19%
20-Jun-2024 06:00Clear Sky27°C18 mph, S0%10000m1016hPa21%
20-Jun-2024 09:00Clear Sky22°C18 mph, S0%10000m1018hPa38%
20-Jun-2024 12:00Scattered Clouds18°C22 mph, S28%10000m1021hPa47%
20-Jun-2024 15:00Overcast Clouds16°C20 mph, S100%10000m1021hPa47%
20-Jun-2024 18:00Overcast Clouds15°C20 mph, S100%10000m1021hPa45%
20-Jun-2024 21:00Scattered Clouds14°C18 mph, SE47%10000m1022hPa47%